Time;durP1;ratioP1;P1;durP2;ratioP2;P2;SDS_P1;SDS_P2;PMS_P1;PMS_P2;Temp;Humidity;BMP_temperature;BMP_pressure;BME280_temperature;BME280_humidity;BME280_pressure;Samples;Min_cycle;Max_cycle;Signal;HPM_P1;HPM_P2
2022/11/11 00:01:46;;;;;;;0.50;0.50;;;18.00;70.60;;;;;;4999459;28;20066;-18
2022/11/11 00:04:12;;;;;;;0.50;0.50;;;18.00;70.70;;;;;;4993997;28;20111;-18
2022/11/11 00:06:37;;;;;;;0.60;0.60;;;18.00;70.60;;;;;;5002273;28;20041;-18
2022/11/11 00:09:03;;;;;;;0.70;0.70;;;18.00;70.70;;;;;;5000074;28;20441;-17
2022/11/11 00:11:29;;;;;;;0.70;0.70;;;18.00;70.60;;;;;;4993829;28;20042;-18
2022/11/11 00:13:54;;;;;;;0.80;0.80;;;18.00;70.90;;;;;;4998896;28;20042;-18
2022/11/11 00:16:20;;;;;;;0.52;0.52;;;18.00;70.80;;;;;;4996021;28;20622;-16
2022/11/11 00:26:46;;;;;;;0.50;0.50;;;18.00;71.00;;;;;;4998642;28;20069;-25
2022/11/11 00:29:12;;;;;;;0.65;0.63;;;18.00;71.10;;;;;;5006259;28;20420;-18
2022/11/11 00:32:21;;;;;;;0.73;0.73;;;18.00;71.10;;;;;;4997777;28;20046;-18
2022/11/11 00:34:23;;;;;;;1.75;0.60;;;18.00;71.70;;;;;;5014041;28;20065;-16
2022/11/11 00:36:48;;;;;;;0.70;0.70;;;18.00;71.00;;;;;;5013331;28;20402;-23
2022/11/11 00:39:14;;;;;;;0.60;0.60;;;18.00;71.00;;;;;;5010983;28;20041;-17
2022/11/11 00:41:39;;;;;;;0.55;0.55;;;18.00;71.10;;;;;;5017598;28;20045;-18
2022/11/11 00:44:05;;;;;;;0.75;0.75;;;18.00;71.20;;;;;;5018773;28;20046;-26
2022/11/11 00:52:01;;;;;;;0.60;0.60;;;17.90;71.10;;;;;;5032040;28;20124;-18
2022/11/11 00:54:26;;;;;;;0.40;0.40;;;18.00;71.20;;;;;;5014353;28;20559;-18
2022/11/11 00:56:52;;;;;;;0.55;0.55;;;18.00;71.30;;;;;;5014233;28;20058;-17
2022/11/11 00:59:17;;;;;;;0.50;0.50;;;17.90;71.20;;;;;;5006584;28;20129;-18
2022/11/11 01:01:43;;;;;;;0.60;0.60;;;17.90;71.20;;;;;;4997820;28;20045;-18
2022/11/11 01:04:08;;;;;;;0.90;0.90;;;17.90;71.20;;;;;;4999953;28;20687;-19
2022/11/11 01:06:34;;;;;;;0.50;0.50;;;17.90;71.20;;;;;;4995729;28;20049;-18
2022/11/11 01:09:04;;;;;;;0.70;0.70;;;17.90;71.20;;;;;;4999584;28;20044;-18
2022/11/11 01:11:30;;;;;;;0.47;0.47;;;17.90;71.10;;;;;;5008726;28;20057;-18
2022/11/11 01:13:56;;;;;;;0.75;0.60;;;17.90;71.10;;;;;;5018152;28;20045;-17
2022/11/11 01:16:23;;;;;;;0.50;0.50;;;17.90;71.10;;;;;;5016460;28;20045;-22
2022/11/11 01:18:49;;;;;;;0.60;0.60;;;17.90;71.10;;;;;;5010842;28;20050;-18
2022/11/11 01:21:19;;;;;;;0.50;0.50;;;17.90;71.10;;;;;;5013640;28;20076;-18
2022/11/11 01:23:46;;;;;;;0.50;0.47;;;17.90;71.10;;;;;;4996462;28;20058;-18
2022/11/11 01:26:18;;;;;;;0.50;0.50;;;17.90;71.10;;;;;;4991528;28;20446;-18
2022/11/11 01:28:44;;;;;;;0.70;0.70;;;17.90;71.10;;;;;;4992230;28;20149;-18
2022/11/11 01:31:11;;;;;;;0.55;0.55;;;17.90;71.10;;;;;;4996540;28;21350;-18
2022/11/11 01:33:37;;;;;;;0.45;0.45;;;17.90;71.10;;;;;;4997349;28;20042;-22
2022/11/11 01:36:15;;;;;;;0.45;0.45;;;17.90;71.20;;;;;;4992132;28;20050;-19
2022/11/11 01:38:44;;;;;;;0.45;0.45;;;17.90;71.10;;;;;;4985656;28;20073;-18
2022/11/11 01:41:32;;;;;;;0.85;0.50;;;17.90;71.10;;;;;;4997641;28;20418;-19
2022/11/11 01:44:18;;;;;;;0.63;0.60;;;17.90;71.10;;;;;;5003427;28;20524;-17
2022/11/11 01:46:52;;;;;;;0.77;0.77;;;17.90;71.20;;;;;;5007059;28;20041;-18
2022/11/11 01:49:29;;;;;;;0.50;0.50;;;17.90;71.10;;;;;;5008657;28;20042;-18
2022/11/11 01:51:59;;;;;;;0.65;0.60;;;17.90;71.10;;;;;;5004621;28;20038;-18
2022/11/11 01:54:35;;;;;;;0.50;0.50;;;17.90;71.10;;;;;;5010737;28;20057;-19
2022/11/11 01:57:25;;;;;;;0.50;0.50;;;17.90;71.00;;;;;;5004766;28;20054;-20
2022/11/11 01:59:59;;;;;;;0.50;0.50;;;17.90;71.00;;;;;;4998339;28;20461;-18
2022/11/11 02:02:45;;;;;;;0.47;0.47;;;17.80;71.20;;;;;;5009775;28;20057;-18
2022/11/11 02:07:57;;;;;;;0.57;0.57;;;17.90;71.10;;;;;;4993561;28;20061;-22
2022/11/11 02:10:23;;;;;;;0.50;0.50;;;17.80;71.10;;;;;;4992500;28;20462;-18
2022/11/11 02:15:33;;;;;;;0.60;0.60;;;17.80;70.90;;;;;;4994654;28;20052;-18
2022/11/11 02:17:59;;;;;;;0.50;0.50;;;17.80;70.90;;;;;;5006967;28;20137;-18
2022/11/11 02:20:26;;;;;;;0.50;0.50;;;17.80;70.90;;;;;;4994361;28;20065;-18
2022/11/11 02:22:56;;;;;;;0.30;0.30;;;17.80;70.90;;;;;;4996947;28;20149;-18
2022/11/11 02:25:23;;;;;;;0.57;0.57;;;17.90;71.00;;;;;;5003024;28;20430;-18
2022/11/11 02:27:50;;;;;;;0.52;0.52;;;17.80;71.00;;;;;;5006986;28;20441;-26
2022/11/11 02:30:16;;;;;;;0.70;0.70;;;17.80;70.90;;;;;;5016284;28;20072;-20
2022/11/11 02:32:43;;;;;;;0.40;0.40;;;17.80;70.90;;;;;;5013738;28;20052;-18
2022/11/11 02:35:30;;;;;;;1.00;0.32;;;17.80;71.00;;;;;;5000031;28;20070;-22
2022/11/11 02:37:55;;;;;;;0.40;0.40;;;17.80;71.00;;;;;;4993876;28;20581;-18
2022/11/11 02:43:35;;;;;;;0.30;0.30;;;17.80;70.90;;;;;;5007198;28;20080;-18
2022/11/11 02:46:02;;;;;;;0.82;0.38;;;17.80;70.90;;;;;;4995995;28;20062;-18
2022/11/11 02:48:28;;;;;;;0.40;0.40;;;17.80;71.00;;;;;;4994663;28;20113;-18
2022/11/11 02:50:53;;;;;;;0.57;0.57;;;17.80;71.00;;;;;;5003276;28;20051;-19
2022/11/11 02:53:19;;;;;;;0.60;0.60;;;17.80;71.00;;;;;;5005109;28;20041;-17
2022/11/11 02:55:45;;;;;;;0.60;0.60;;;17.80;70.90;;;;;;5013498;28;20038;-18
2022/11/11 02:58:10;;;;;;;0.70;0.60;;;17.80;70.90;;;;;;5017033;28;20161;-18
2022/11/11 03:00:36;;;;;;;0.50;0.50;;;17.80;71.00;;;;;;5008920;28;20116;-17
2022/11/11 03:03:01;;;;;;;0.40;0.40;;;17.80;70.90;;;;;;5017130;28;20049;-18
2022/11/11 03:05:27;;;;;;;0.45;0.45;;;17.80;71.00;;;;;;4997190;28;20042;-18
2022/11/11 03:07:52;;;;;;;0.60;0.60;;;17.80;71.00;;;;;;4993132;28;20042;-18
2022/11/11 03:10:18;;;;;;;0.40;0.40;;;17.80;71.00;;;;;;5014749;28;20041;-18
2022/11/11 03:12:43;;;;;;;0.57;0.57;;;17.80;71.10;;;;;;5007727;28;20045;-18
2022/11/11 03:15:09;;;;;;;0.65;0.65;;;17.80;71.10;;;;;;5008545;28;20534;-18
2022/11/11 03:17:38;;;;;;;0.47;0.47;;;17.80;71.20;;;;;;5008905;28;20042;-17
2022/11/11 03:22:59;;;;;;;0.50;0.50;;;17.80;71.10;;;;;;5007027;28;20052;-18
2022/11/11 03:25:37;;;;;;;0.50;0.50;;;17.80;71.10;;;;;;4995268;28;20072;-18
2022/11/11 03:28:11;;;;;;;0.30;0.30;;;17.80;71.00;;;;;;5006387;28;20039;-18
2022/11/11 03:30:38;;;;;;;0.70;0.57;;;17.80;70.90;;;;;;5014901;28;20108;-18
2022/11/11 03:33:03;;;;;;;0.65;0.65;;;17.80;71.10;;;;;;5016849;28;20069;-18
2022/11/11 03:35:29;;;;;;;0.57;0.57;;;17.80;71.10;;;;;;5011776;28;20068;-18
2022/11/11 03:40:39;;;;;;;0.47;0.47;;;17.70;71.10;;;;;;5004252;28;20040;-17
2022/11/11 03:43:05;;;;;;;0.55;0.55;;;17.80;71.20;;;;;;4993290;28;20414;-18
2022/11/11 03:45:30;;;;;;;0.50;0.50;;;17.80;71.10;;;;;;4990777;28;20042;-18
2022/11/11 03:47:57;;;;;;;0.60;0.60;;;17.70;71.20;;;;;;4991880;28;21387;-18
2022/11/11 03:50:23;;;;;;;0.50;0.50;;;17.70;71.10;;;;;;4996059;28;20046;-18
2022/11/11 03:52:48;;;;;;;0.50;0.50;;;17.80;71.20;;;;;;4992854;28;20551;-18
2022/11/11 03:55:14;;;;;;;0.60;0.52;;;17.80;71.10;;;;;;4993928;28;20046;-17
2022/11/11 03:57:41;;;;;;;0.43;0.43;;;17.80;71.00;;;;;;4990513;28;20050;-17
2022/11/11 04:00:07;;;;;;;0.45;0.40;;;17.80;71.00;;;;;;4992647;28;20048;-17
2022/11/11 04:10:45;;;;;;;0.50;0.50;;;17.70;71.00;;;;;;4986837;28;20061;-17
2022/11/11 04:16:04;;;;;;;0.40;0.40;;;17.70;71.10;;;;;;4986757;28;20050;-19
2022/11/11 04:23:59;;;;;;;0.40;0.40;;;17.70;71.10;;;;;;5015809;28;20060;-18
2022/11/11 04:26:24;;;;;;;0.30;0.30;;;17.70;71.10;;;;;;5015889;28;20068;-18
2022/11/11 04:31:34;;;;;;;0.30;0.30;;;17.70;71.20;;;;;;5011214;28;20104;-17
2022/11/11 04:33:59;;;;;;;0.40;0.40;;;17.70;71.00;;;;;;5003012;28;20403;-25
2022/11/11 04:36:25;;;;;;;0.30;0.30;;;17.70;71.00;;;;;;5013940;28;20125;-18
2022/11/11 04:41:34;;;;;;;0.30;0.30;;;17.70;71.00;;;;;;5001180;28;20093;-18
2022/11/11 04:46:44;;;;;;;0.40;0.40;;;17.70;70.90;;;;;;5014011;28;20048;-18
2022/11/11 04:49:10;;;;;;;0.40;0.40;;;17.70;71.00;;;;;;5006863;28;20038;-21
2022/11/11 04:54:19;;;;;;;0.32;0.30;;;17.70;71.00;;;;;;5006906;28;20100;-18
2022/11/11 04:56:49;;;;;;;0.30;0.30;;;17.70;71.10;;;;;;5009045;28;20129;-19
2022/11/11 04:59:19;;;;;;;0.40;0.40;;;17.70;71.00;;;;;;5019887;28;20490;-19
2022/11/11 05:04:29;;;;;;;;;;;17.70;71.00;;;;;;5022873;28;20091;-18
2022/11/11 05:09:38;;;;;;;0.38;0.38;;;17.70;71.10;;;;;;5012613;28;20056;-16
2022/11/11 05:12:04;;;;;;;0.40;0.40;;;17.70;71.00;;;;;;5011167;28;20033;-18
2022/11/11 05:22:42;;;;;;;0.30;0.30;;;17.70;71.00;;;;;;5002125;28;20045;-17
2022/11/11 05:25:25;;;;;;;0.32;0.32;;;17.70;71.00;;;;;;5009476;28;20054;-17
2022/11/11 05:27:52;;;;;;;0.30;0.30;;;17.70;71.00;;;;;;5019759;28;20041;-18
2022/11/11 05:30:17;;;;;;;0.25;0.25;;;17.70;71.00;;;;;;5010351;28;20512;-18
2022/11/11 05:32:43;;;;;;;0.43;0.43;;;17.70;71.00;;;;;;4995117;28;20046;-18
2022/11/11 05:35:09;;;;;;;0.40;0.40;;;17.70;70.90;;;;;;4995577;28;20046;-19
2022/11/11 05:37:34;;;;;;;0.40;0.40;;;17.70;71.10;;;;;;4993419;28;20139;-24
2022/11/11 05:40:00;;;;;;;0.30;0.30;;;17.70;71.00;;;;;;4990563;28;20132;-22
2022/11/11 05:42:26;;;;;;;0.30;0.30;;;17.70;71.10;;;;;;4997574;28;20549;-18
2022/11/11 05:44:51;;;;;;;0.30;0.30;;;17.70;71.00;;;;;;4994331;28;20058;-18
2022/11/11 05:47:17;;;;;;;0.60;0.60;;;17.70;71.00;;;;;;4991922;28;20128;-18
2022/11/11 05:49:42;;;;;;;0.30;0.30;;;17.70;70.90;;;;;;4991367;28;20054;-18
2022/11/11 05:52:12;;;;;;;0.40;0.40;;;17.70;70.90;;;;;;4995429;28;20534;-18
2022/11/11 05:54:37;;;;;;;0.30;0.30;;;17.70;71.00;;;;;;4993885;28;20125;-18
2022/11/11 05:57:03;;;;;;;0.40;0.40;;;17.70;71.00;;;;;;4989405;28;20647;-18
2022/11/11 05:59:29;;;;;;;0.40;0.40;;;17.70;70.90;;;;;;4996291;28;20060;-17
2022/11/11 06:01:54;;;;;;;0.30;0.30;;;17.60;70.90;;;;;;4988207;28;20049;-22
2022/11/11 06:04:20;;;;;;;0.20;0.20;;;17.70;70.90;;;;;;4995097;28;20392;-18
2022/11/11 06:06:45;;;;;;;0.30;0.30;;;17.70;71.00;;;;;;4996366;28;20046;-18
2022/11/11 06:09:11;;;;;;;0.22;0.22;;;17.70;71.10;;;;;;4991718;28;20046;-18
2022/11/11 06:11:37;;;;;;;0.28;0.28;;;17.70;71.10;;;;;;4993436;28;20149;-18
2022/11/11 06:14:02;;;;;;;0.45;0.40;;;17.70;70.90;;;;;;4991644;28;20062;-18
2022/11/11 06:16:28;;;;;;;0.30;0.30;;;17.60;70.90;;;;;;4989723;28;20054;-18
2022/11/11 06:18:53;;;;;;;0.30;0.30;;;17.70;70.80;;;;;;4997891;28;20031;-18
2022/11/11 06:21:19;;;;;;;0.22;0.22;;;17.70;70.60;;;;;;4994959;28;20493;-18
2022/11/11 06:23:45;;;;;;;0.40;0.40;;;17.70;70.70;;;;;;4991932;28;20038;-18
2022/11/11 06:26:14;;;;;;;0.43;0.40;;;17.70;70.70;;;;;;4993348;28;20041;-18
2022/11/11 06:28:40;;;;;;;0.40;0.40;;;17.70;70.80;;;;;;4988674;28;20137;-21
2022/11/11 06:31:07;;;;;;;0.30;0.30;;;17.70;70.80;;;;;;4993700;28;20503;-19
2022/11/11 06:33:36;;;;;;;0.20;0.20;;;17.70;71.00;;;;;;4993733;28;20058;-19
2022/11/11 06:36:01;;;;;;;0.30;0.30;;;17.60;70.90;;;;;;4993576;28;20078;-18
2022/11/11 06:38:27;;;;;;;0.35;0.35;;;17.60;70.80;;;;;;4991212;28;20512;-18
2022/11/11 06:40:53;;;;;;;0.40;0.40;;;17.70;70.90;;;;;;4989216;28;20467;-18
2022/11/11 06:43:18;;;;;;;0.30;0.30;;;17.70;70.80;;;;;;4991796;28;20038;-34
2022/11/11 06:45:44;;;;;;;0.40;0.40;;;17.60;70.70;;;;;;4992154;28;20103;-36
2022/11/11 06:48:10;;;;;;;0.40;0.40;;;17.70;70.70;;;;;;4993536;28;20057;-39
2022/11/11 06:50:35;;;;;;;0.32;0.32;;;17.70;70.70;;;;;;4992144;28;20038;-36
2022/11/11 06:53:05;;;;;;;0.30;0.30;;;17.70;70.60;;;;;;4991889;28;20037;-36
2022/11/11 06:55:32;;;;;;;0.28;0.28;;;17.70;70.50;;;;;;4994949;28;20030;-45
2022/11/11 06:58:06;;;;;;;0.30;0.30;;;17.70;70.60;;;;;;4985474;28;20488;-35
2022/11/11 07:00:33;;;;;;;0.32;0.32;;;17.70;70.70;;;;;;4994984;28;20045;-35
2022/11/11 07:02:58;;;;;;;0.20;0.20;;;17.70;70.70;;;;;;4991170;28;20539;-33
2022/11/11 07:05:24;;;;;;;0.50;0.50;;;17.70;71.50;;;;;;4991346;28;20050;-34
2022/11/11 07:07:49;;;;;;;2.05;1.15;;;17.70;70.60;;;;;;4991962;28;20070;-34
2022/11/11 07:10:16;;;;;;;0.35;0.30;;;17.70;71.60;;;;;;4995064;28;20027;-35
2022/11/11 07:12:42;;;;;;;0.20;0.20;;;17.70;70.70;;;;;;4992618;28;20042;-37
2022/11/11 07:15:08;;;;;;;0.28;0.28;;;17.70;70.70;;;;;;4992987;28;20170;-31
2022/11/11 07:17:34;;;;;;;0.30;0.30;;;17.70;70.70;;;;;;4994318;28;20042;-37
2022/11/11 07:19:59;;;;;;;0.30;0.30;;;17.70;70.70;;;;;;4990965;28;20044;-37
2022/11/11 07:22:25;;;;;;;0.35;0.35;;;17.70;70.80;;;;;;4994068;28;20038;-34
2022/11/11 07:24:50;;;;;;;0.47;0.30;;;17.60;70.70;;;;;;4991060;28;20030;-34
2022/11/11 07:27:16;;;;;;;0.28;0.20;;;17.60;70.70;;;;;;4992211;28;20125;-34
2022/11/11 07:29:41;;;;;;;0.28;0.28;;;17.70;70.70;;;;;;4992746;28;20038;-37
2022/11/11 07:32:07;;;;;;;0.20;0.20;;;17.70;70.70;;;;;;4992054;28;20046;-36
2022/11/11 07:34:33;;;;;;;0.22;0.22;;;17.60;70.70;;;;;;4990439;28;20421;-39
2022/11/11 07:36:58;;;;;;;0.20;0.20;;;17.60;70.70;;;;;;4997688;28;20054;-41
2022/11/11 07:39:24;;;;;;;0.47;0.20;;;17.60;70.70;;;;;;4991714;28;20507;-38
2022/11/11 07:41:49;;;;;;;0.20;0.20;;;17.60;70.70;;;;;;4994864;28;20042;-34
2022/11/11 07:44:15;;;;;;;0.30;0.30;;;17.70;70.70;;;;;;4991505;28;20104;-34
2022/11/11 07:46:41;;;;;;;0.20;0.20;;;17.60;70.60;;;;;;4996676;28;20041;-35
2022/11/11 07:49:06;;;;;;;0.30;0.30;;;17.60;70.70;;;;;;4994683;28;20081;-34
2022/11/11 07:51:32;;;;;;;0.28;0.28;;;17.60;70.70;;;;;;4991218;28;20034;-33
2022/11/11 07:53:57;;;;;;;0.20;0.20;;;17.60;70.60;;;;;;4988237;28;20049;-34
2022/11/11 07:56:23;;;;;;;0.20;0.20;;;17.60;70.60;;;;;;4993008;28;20039;-32
2022/11/11 07:58:48;;;;;;;0.20;0.20;;;17.60;70.50;;;;;;4994470;28;20137;-33
2022/11/11 08:01:14;;;;;;;0.20;0.20;;;17.60;70.60;;;;;;4640384;28;9999855;-35
2022/11/11 08:03:48;;;;;;;0.30;0.30;;;17.60;70.70;;;;;;4994384;28;20302;-37
2022/11/11 08:06:14;;;;;;;;;;;17.60;70.50;;;;;;5004999;28;20081;-37
2022/11/11 08:08:40;;;;;;;0.25;0.25;;;17.70;70.60;;;;;;5015481;28;19921;-33
2022/11/11 08:11:05;;;;;;;0.10;0.10;;;17.70;70.50;;;;;;5018557;28;20670;-34
2022/11/11 08:13:40;;;;;;;0.20;0.20;;;17.70;70.60;;;;;;4999797;28;20166;-35
2022/11/11 08:16:07;;;;;;;0.38;0.38;;;17.70;70.30;;;;;;4990292;28;20069;-36
2022/11/11 08:18:33;;;;;;;0.20;0.20;;;17.70;70.30;;;;;;4990987;28;20096;-37
2022/11/11 08:20:59;;;;;;;0.25;0.25;;;17.70;70.50;;;;;;4989547;28;20046;-38
2022/11/11 08:23:31;;;;;;;0.45;0.40;;;17.70;70.50;;;;;;4996242;28;20052;-35
2022/11/11 08:26:04;;;;;;;0.28;0.28;;;17.70;70.40;;;;;;5005158;28;20050;-36
2022/11/11 08:28:31;;;;;;;0.55;0.30;;;17.70;70.40;;;;;;5002753;28;20085;-35
2022/11/11 08:31:00;;;;;;;0.30;0.30;;;17.70;70.60;;;;;;5008317;28;20046;-35
2022/11/11 08:33:25;;;;;;;0.20;0.20;;;17.70;70.50;;;;;;5003898;28;20188;-39
2022/11/11 08:35:54;;;;;;;0.40;0.40;;;17.70;70.60;;;;;;5012468;28;20489;-38
2022/11/11 08:38:20;;;;;;;0.17;0.17;;;17.70;70.60;;;;;;5006136;28;20438;-43
2022/11/11 08:40:46;;;;;;;0.30;0.30;;;17.70;70.50;;;;;;5011483;28;20518;-39
2022/11/11 08:43:12;;;;;;;0.32;0.30;;;17.70;70.60;;;;;;5011614;28;20064;-36
2022/11/11 08:45:37;;;;;;;0.40;0.40;;;17.70;70.70;;;;;;5010903;28;20040;-35
2022/11/11 08:48:03;;;;;;;0.40;0.40;;;17.70;70.50;;;;;;5010612;28;20107;-37
2022/11/11 08:50:28;;;;;;;0.38;0.38;;;17.70;70.40;;;;;;5001946;28;20161;-33
2022/11/11 08:52:54;;;;;;;0.32;0.32;;;17.70;70.40;;;;;;5003015;28;20053;-39
2022/11/11 08:55:20;;;;;;;0.30;0.30;;;17.70;70.50;;;;;;5009817;28;20426;-38
2022/11/11 08:57:45;;;;;;;0.40;0.40;;;17.70;70.50;;;;;;5002156;28;20042;-40
2022/11/11 09:00:11;;;;;;;0.20;0.20;;;17.70;70.40;;;;;;5005059;28;20084;-40
2022/11/11 09:02:37;;;;;;;4.28;0.20;;;17.70;70.40;;;;;;4999147;28;20054;-33
2022/11/11 09:05:03;;;;;;;0.20;0.20;;;17.80;70.30;;;;;;5009146;28;20041;-35
2022/11/11 09:07:29;;;;;;;0.40;0.40;;;17.70;70.30;;;;;;5002440;28;20084;-36
2022/11/11 09:09:54;;;;;;;0.22;0.22;;;17.70;70.30;;;;;;5010218;28;20124;-34
2022/11/11 09:12:20;;;;;;;0.38;0.38;;;17.70;70.40;;;;;;5006399;28;20405;-33
2022/11/11 09:14:47;;;;;;;0.20;0.20;;;17.70;70.30;;;;;;5010664;28;20066;-35
2022/11/11 09:17:12;;;;;;;0.20;0.20;;;17.80;70.30;;;;;;5000159;28;20529;-37
2022/11/11 09:19:38;;;;;;;1.25;0.20;;;17.70;70.30;;;;;;5006801;28;20050;-34
2022/11/11 09:22:04;;;;;;;0.30;0.30;;;17.70;71.10;;;;;;5004493;28;20054;-37
2022/11/11 09:24:30;;;;;;;0.38;0.20;;;17.70;70.30;;;;;;5001725;28;20061;-38
2022/11/11 09:26:55;;;;;;;0.30;0.30;;;17.80;70.20;;;;;;4984896;28;20152;-36
2022/11/11 09:29:21;;;;;;;0.82;0.30;;;17.70;70.20;;;;;;4984521;28;20050;-38
2022/11/11 09:31:46;;;;;;;0.40;0.40;;;17.80;70.10;;;;;;4985484;28;20074;-37
2022/11/11 09:34:13;;;;;;;0.22;0.22;;;17.80;70.10;;;;;;5002337;28;20425;-34
2022/11/11 09:36:38;;;;;;;0.55;0.40;;;17.80;70.10;;;;;;5008454;28;20050;-34
2022/11/11 09:39:04;;;;;;;0.20;0.20;;;17.80;70.20;;;;;;5011258;28;20060;-39
2022/11/11 09:42:00;;;;;;;0.20;0.20;;;17.80;70.10;;;;;;5006119;28;20061;-34
2022/11/11 09:44:52;;;;;;;0.28;0.28;;;17.70;70.00;;;;;;5012236;28;20054;-35
2022/11/11 09:47:39;;;;;;;0.30;0.30;;;17.70;70.10;;;;;;4994905;28;20042;-35
2022/11/11 09:50:09;;;;;;;0.30;0.30;;;17.80;70.20;;;;;;4986466;28;20499;-38
2022/11/11 09:52:45;;;;;;;0.30;0.30;;;17.80;70.20;;;;;;4986136;28;20120;-33
2022/11/11 09:55:30;;;;;;;0.30;0.30;;;17.70;70.20;;;;;;4986115;28;20050;-33
2022/11/11 09:58:00;;;;;;;0.32;0.32;;;17.80;70.20;;;;;;4985455;28;20080;-37
2022/11/11 10:00:32;;;;;;;0.60;0.60;;;17.80;70.10;;;;;;4993225;28;20034;-36
2022/11/11 10:03:12;;;;;;;0.30;0.30;;;17.80;70.10;;;;;;4992872;28;20050;-36
2022/11/11 10:05:50;;;;;;;0.30;0.30;;;17.80;70.10;;;;;;4988602;28;20042;-37
2022/11/11 10:08:21;;;;;;;0.50;0.20;;;17.80;70.90;;;;;;5028666;28;20037;-36
2022/11/11 10:10:51;;;;;;;0.40;0.40;;;17.80;70.10;;;;;;5018887;28;20026;-39
2022/11/11 10:13:21;;;;;;;0.52;0.52;;;17.80;70.00;;;;;;5008704;28;20046;-36
2022/11/11 10:16:15;;;;;;;0.50;0.50;;;17.80;70.10;;;;;;5000726;28;20053;-38
2022/11/11 10:18:56;;;;;;;0.22;0.22;;;17.80;70.00;;;;;;5011511;28;20030;-33
2022/11/11 10:21:24;;;;;;;0.30;0.30;;;17.70;70.00;;;;;;5008769;28;20375;-36
2022/11/11 10:23:50;;;;;;;0.30;0.30;;;17.70;70.00;;;;;;5005997;28;20413;-38
2022/11/11 10:26:21;;;;;;;0.20;0.20;;;17.70;70.00;;;;;;5016187;28;20131;-36
2022/11/11 10:28:47;;;;;;;0.30;0.30;;;17.70;69.80;;;;;;4997557;28;20034;-42
2022/11/11 10:31:17;;;;;;;0.30;0.30;;;17.70;69.90;;;;;;4991730;28;20421;-33
2022/11/11 10:33:59;;;;;;;0.40;0.40;;;17.70;69.80;;;;;;4993858;28;20051;-36
2022/11/11 10:36:25;;;;;;;0.47;0.32;;;17.80;69.80;;;;;;4989850;28;20038;-38
2022/11/11 10:38:57;;;;;;;0.35;0.35;;;17.70;69.80;;;;;;4990153;28;20050;-35
2022/11/11 10:41:30;;;;;;;0.65;0.30;;;17.80;69.80;;;;;;5005681;28;20042;-33
2022/11/11 10:43:56;;;;;;;0.47;0.47;;;17.70;70.60;;;;;;5011927;28;20084;-22
2022/11/11 10:46:41;;;;;;;0.30;0.30;;;17.70;69.90;;;;;;5019527;28;20099;-32
2022/11/11 10:49:13;;;;;;;0.40;0.40;;;17.70;69.90;;;;;;4990192;28;20481;-36
2022/11/11 10:51:46;;;;;;;0.55;0.55;;;17.70;69.90;;;;;;4995234;28;20068;-35
2022/11/11 10:54:17;;;;;;;0.30;0.30;;;17.70;70.70;;;;;;4996044;28;20084;-34
2022/11/11 10:56:50;;;;;;;0.28;0.28;;;17.70;69.90;;;;;;4995105;28;20042;-32
2022/11/11 10:59:15;;;;;;;0.30;0.30;;;17.70;70.00;;;;;;5000114;28;20050;-36
2022/11/11 11:01:47;;;;;;;0.40;0.40;;;17.70;70.00;;;;;;4999580;28;20441;-36
2022/11/11 11:04:22;;;;;;;0.40;0.40;;;17.60;69.90;;;;;;4989154;28;20053;-38
2022/11/11 11:06:48;;;;;;;0.70;0.70;;;17.60;70.00;;;;;;4995184;28;20039;-35
2022/11/11 11:09:41;;;;;;;0.50;0.50;;;17.60;70.10;;;;;;5007698;28;20121;-38
2022/11/11 11:12:26;;;;;;;0.38;0.38;;;17.60;70.10;;;;;;4994619;28;20046;-37
2022/11/11 11:14:54;;;;;;;0.43;0.40;;;17.60;70.00;;;;;;5006522;28;20046;-36
2022/11/11 11:17:25;;;;;;;0.40;0.40;;;17.60;70.00;;;;;;4995111;28;20049;-39
2022/11/11 11:20:08;;;;;;;0.45;0.45;;;17.60;70.10;;;;;;5003732;28;20448;-36
2022/11/11 11:22:50;;;;;;;0.50;0.50;;;17.60;70.00;;;;;;4999549;28;20053;-38
2022/11/11 11:25:17;;;;;;;0.60;0.60;;;17.60;70.10;;;;;;5013412;28;20033;-38
2022/11/11 11:27:43;;;;;;;0.47;0.47;;;17.60;70.00;;;;;;5005224;28;20041;-37
2022/11/11 11:30:14;;;;;;;0.40;0.40;;;17.60;70.00;;;;;;4993252;28;20089;-37
2022/11/11 11:32:42;;;;;;;0.38;0.38;;;17.60;70.00;;;;;;4992924;28;20066;-36
2022/11/11 11:35:08;;;;;;;0.40;0.40;;;17.60;70.00;;;;;;4987411;28;20054;-35
2022/11/11 11:37:50;;;;;;;0.40;0.40;;;17.60;70.00;;;;;;4639385;28;10000046;-34
2022/11/11 11:40:15;;;;;;;0.40;0.40;;;17.50;70.10;;;;;;4990886;28;20065;-32
2022/11/11 11:42:42;;;;;;;0.70;0.70;;;17.60;70.00;;;;;;4982689;28;20046;-36
2022/11/11 11:45:15;;;;;;;0.40;0.40;;;17.60;69.90;;;;;;4988797;28;20050;-38
2022/11/11 11:47:47;;;;;;;0.47;0.47;;;17.70;70.70;;;;;;4978834;28;20605;-36
2022/11/11 11:50:50;;;;;;;0.52;0.52;;;17.70;69.60;;;;;;4989245;28;20123;-39
2022/11/11 11:53:40;;;;;;;0.70;0.70;;;17.80;69.60;;;;;;4982065;28;20519;-34
2022/11/11 11:56:23;;;;;;;2.03;1.10;;;17.80;69.70;;;;;;4984555;28;20727;-37
2022/11/11 11:59:12;;;;;;;1.02;0.77;;;17.80;69.70;;;;;;4986523;28;20165;-34
2022/11/11 12:01:47;;;;;;;1.27;1.17;;;17.80;69.80;;;;;;4980353;28;20046;-36
2022/11/11 12:04:21;;;;;;;1.00;1.00;;;17.70;69.80;;;;;;4987258;28;20498;-36
2022/11/11 12:07:15;;;;;;;1.00;1.00;;;17.70;69.80;;;;;;4996694;28;20082;-36
2022/11/11 12:09:46;;;;;;;1.10;1.00;;;17.70;69.90;;;;;;4988343;28;20137;-35
2022/11/11 12:12:47;;;;;;;1.38;1.27;;;17.70;70.00;;;;;;4981489;28;20042;-35
2022/11/11 12:15:25;;;;;;;1.38;1.10;;;17.70;70.00;;;;;;5011015;28;20771;-37
2022/11/11 12:18:20;;;;;;;1.33;1.30;;;17.70;70.00;;;;;;5017948;28;20052;-36
2022/11/11 12:20:51;;;;;;;1.00;1.00;;;17.70;69.90;;;;;;4993313;28;20710;-33
2022/11/11 12:23:28;;;;;;;1.20;1.20;;;17.70;70.00;;;;;;4964725;28;20038;-38
2022/11/11 12:26:09;;;;;;;1.35;1.30;;;17.70;70.10;;;;;;4981505;28;20050;-38
2022/11/11 12:28:47;;;;;;;1.55;1.02;;;17.70;70.00;;;;;;5000502;28;20046;-34
2022/11/11 12:31:20;;;;;;;1.25;1.13;;;17.70;69.90;;;;;;4996109;28;20157;-38
2022/11/11 12:34:06;;;;;;;1.25;1.20;;;17.80;69.80;;;;;;5029763;28;20046;-35
2022/11/11 12:36:57;;;;;;;1.52;1.42;;;17.70;69.90;;;;;;4992582;28;20154;-39
2022/11/11 12:40:00;;;;;;;1.33;1.30;;;17.70;69.90;;;;;;4996274;28;20052;-37
2022/11/11 12:42:38;;;;;;;1.15;1.15;;;17.70;69.90;;;;;;4994673;28;20041;-18
2022/11/11 12:45:17;;;;;;;1.58;1.48;;;17.80;69.80;;;;;;5032015;28;20128;-21
2022/11/11 12:48:04;;;;;;;1.40;1.30;;;17.80;69.80;;;;;;5001173;28;20508;-17
2022/11/11 12:50:36;;;;;;;0.93;0.93;;;17.70;69.90;;;;;;4982652;28;20043;-19
2022/11/11 12:53:17;;;;;;;1.45;1.35;;;17.70;70.00;;;;;;4982785;28;20451;-18
2022/11/11 12:56:20;;;;;;;1.27;1.17;;;17.80;69.90;;;;;;5016686;28;20440;-19
2022/11/11 12:58:56;;;;;;;1.40;1.40;;;17.70;69.90;;;;;;4978591;28;20419;-19
2022/11/11 13:01:37;;;;;;;1.13;1.13;;;17.80;69.80;;;;;;4990918;28;20201;-19
2022/11/11 13:04:34;;;;;;;1.20;1.20;;;17.80;69.90;;;;;;4983749;28;20062;-19
2022/11/11 13:07:06;;;;;;;0.90;0.90;;;17.70;69.90;;;;;;4997782;28;20054;-19
2022/11/11 13:09:35;;;;;;;1.08;1.08;;;17.80;69.90;;;;;;5027847;28;20045;-20
2022/11/11 13:12:20;;;;;;;1.85;1.10;;;17.70;70.00;;;;;;4998397;28;20503;-23
2022/11/11 13:14:56;;;;;;;1.17;1.17;;;17.70;70.00;;;;;;5015760;28;20050;-19
2022/11/11 13:17:21;;;;;;;1.27;1.27;;;17.70;70.00;;;;;;5007258;28;20497;-22
2022/11/11 13:20:26;;;;;;;0.90;0.90;;;17.70;70.00;;;;;;5001391;28;20047;-19
2022/11/11 13:22:52;;;;;;;1.08;1.08;;;17.80;69.90;;;;;;5022301;28;20587;-20
2022/11/11 13:25:23;;;;;;;1.08;0.98;;;17.70;69.90;;;;;;5002488;28;20033;-19
2022/11/11 13:27:53;;;;;;;0.90;0.90;;;17.70;70.00;;;;;;5004622;28;20052;-19
2022/11/11 13:30:48;;;;;;;1.20;1.10;;;17.70;70.00;;;;;;5000233;28;20047;-20
2022/11/11 13:33:18;;;;;;;0.90;0.90;;;17.70;70.00;;;;;;5005163;28;20049;-20
2022/11/11 13:35:46;;;;;;;1.00;1.00;;;17.70;69.90;;;;;;4998483;28;20077;-19
2022/11/11 13:38:50;;;;;;;1.27;1.17;;;17.70;69.90;;;;;;5032675;28;20435;-19
2022/11/11 13:41:27;;;;;;;0.80;0.80;;;17.70;69.90;;;;;;4998797;28;20042;-20
2022/11/11 13:43:53;;;;;;;0.80;0.80;;;17.80;69.80;;;;;;5001603;28;20053;-19
2022/11/11 13:46:30;;;;;;;0.80;0.80;;;17.70;69.80;;;;;;5000444;28;20075;-20
2022/11/11 13:48:55;;;;;;;0.68;0.68;;;17.70;69.80;;;;;;5003416;28;20042;-20
2022/11/11 13:51:23;;;;;;;0.88;0.88;;;17.80;69.80;;;;;;5003939;28;20049;-23
2022/11/11 13:53:49;;;;;;;0.90;0.90;;;17.80;69.80;;;;;;5018587;28;20045;-19
2022/11/11 13:56:33;;;;;;;0.80;0.80;;;17.80;69.80;;;;;;5009279;28;20427;-20
2022/11/11 13:58:59;;;;;;;0.98;0.98;;;17.80;69.80;;;;;;5009529;28;20065;-19
2022/11/11 14:01:34;;;;;;;1.02;1.02;;;17.80;69.90;;;;;;5013940;28;20069;-19
2022/11/11 14:04:02;;;;;;;1.00;1.00;;;17.90;69.50;;;;;;5012026;28;20065;-20
2022/11/11 14:06:28;;;;;;;1.00;1.00;;;18.00;69.10;;;;;;5018151;28;20080;-20
2022/11/11 14:08:54;;;;;;;0.93;0.93;;;18.00;69.20;;;;;;5015412;28;20050;-19
2022/11/11 14:11:25;;;;;;;1.00;1.00;;;17.90;69.20;;;;;;5013209;28;20045;-19
2022/11/11 14:13:55;;;;;;;1.15;1.15;;;17.90;69.40;;;;;;5012527;28;20037;-28